Hilltop, Minnesota
Current Conditions -  °F | °C
As of 12:53 AM on Saturday 25 Oct 2014 (Local Time) from KMIC Reporting Station
Clear Clear  
Wind Chill: 16°   Ceiling: Unl
Heat Index: 16°   Visibility: 10mi
Dew Point:   Wind: 9mph
Humidity: 52%   Direction: 290°WNW
Pressure: 29.9"   Gusts: NA
Location:  45.0516°N, 93.2549°W
Report Text: KMIC 250553Z 29008KT 10SM CLR 16/06 A2990 RMK AO2 SLP122 T01610061 10172 20122 402060083 53019
Loading
Personal Weather Stations






























Interactive Weather Map
Tropical Storm Tracking
New forecast layout! Learn more

10-Day Weather Forecast

Advertisements
Track Severe Weather on mobile